aviador You're here:

KARA Decoded Metar

LOUISIANA in LA, USA
Report Time2018-04-23 22:53:00
UTC Time2018-04-23 23:09:54
Flight Rules vfr VFR
Wind290° at 09 kt
W.Decomp.*RWY 34: 5.4 kt HW 7.2 kt LCW
W.Rank290° ranks 34
Current wind is above 290° avg. (6.5)
Visibility9999 m
Phenomena:N/A
Clouds:Broken 060 Hf
Expected CloudBase > 4,400 ft AGL from Temp-Dew spread
Ceiling6,000 ft
Temp23°C (ISA +8)
Dew Point12°C (50% RH)
AAT20.4°C
QNH1014 hPa
Density Alt1,158 ft
Elevation59 ft
Report Wrong Elevation
Raw Report
KARA 232253Z 29009KT 10SM BKN060 23/12 A2995 RMK AO2 SLP140
T02280117=

Extra information for KARA:More info

Metar Taf Metar & Taf Last 4 Metars F.Rules Stats Wind Profile Meteogram Temp Stats Airport Information Weather charts Add Link Nearby VenuesMetar ALERT Operation Metar Decoded Social comments

AIRNAV info for KARA